sensor_id;sensor_type;location;lat;lon;timestamp;P1;durP1;ratioP1;P2;durP2;ratioP2
51438;SDS011;38816;51.142;-0.974;2023-03-23T00:01:17;43.33;;;6.20;;
51438;SDS011;38816;51.142;-0.974;2023-03-23T00:03:47;55.70;;;7.35;;
51438;SDS011;38816;51.142;-0.974;2023-03-23T00:06:14;47.55;;;6.75;;
51438;SDS011;38816;51.142;-0.974;2023-03-23T00:08:42;40.83;;;6.43;;
51438;SDS011;38816;51.142;-0.974;2023-03-23T00:11:13;45.45;;;6.13;;
51438;SDS011;38816;51.142;-0.974;2023-03-23T00:13:40;44.42;;;7.03;;
51438;SDS011;38816;51.142;-0.974;2023-03-23T00:16:07;43.00;;;6.35;;
51438;SDS011;38816;51.142;-0.974;2023-03-23T00:18:42;42.80;;;6.50;;
51438;SDS011;38816;51.142;-0.974;2023-03-23T00:21:11;49.97;;;6.43;;
51438;SDS011;38816;51.142;-0.974;2023-03-23T00:23:37;41.17;;;5.75;;
51438;SDS011;38816;51.142;-0.974;2023-03-23T00:26:04;41.92;;;6.55;;
51438;SDS011;38816;51.142;-0.974;2023-03-23T00:28:30;42.97;;;6.90;;
51438;SDS011;38816;51.142;-0.974;2023-03-23T00:33:23;45.50;;;5.53;;
51438;SDS011;38816;51.142;-0.974;2023-03-23T00:35:49;46.15;;;6.43;;
51438;SDS011;38816;51.142;-0.974;2023-03-23T00:38:17;47.35;;;6.05;;
51438;SDS011;38816;51.142;-0.974;2023-03-23T00:40:44;44.67;;;6.03;;
51438;SDS011;38816;51.142;-0.974;2023-03-23T00:43:09;43.25;;;5.38;;
51438;SDS011;38816;51.142;-0.974;2023-03-23T00:45:38;48.88;;;7.38;;
51438;SDS011;38816;51.142;-0.974;2023-03-23T00:48:04;52.53;;;6.57;;
51438;SDS011;38816;51.142;-0.974;2023-03-23T00:50:30;51.40;;;7.18;;
51438;SDS011;38816;51.142;-0.974;2023-03-23T00:52:56;46.20;;;6.25;;
51438;SDS011;38816;51.142;-0.974;2023-03-23T00:55:22;46.08;;;5.70;;
51438;SDS011;38816;51.142;-0.974;2023-03-23T00:57:48;49.45;;;6.38;;
51438;SDS011;38816;51.142;-0.974;2023-03-23T01:00:15;30.60;;;4.82;;
51438;SDS011;38816;51.142;-0.974;2023-03-23T01:02:41;32.58;;;5.90;;
51438;SDS011;38816;51.142;-0.974;2023-03-23T01:05:09;50.15;;;5.88;;
51438;SDS011;38816;51.142;-0.974;2023-03-23T01:07:35;41.50;;;5.95;;
51438;SDS011;38816;51.142;-0.974;2023-03-23T01:10:01;41.45;;;5.60;;
51438;SDS011;38816;51.142;-0.974;2023-03-23T01:12:27;36.78;;;5.60;;
51438;SDS011;38816;51.142;-0.974;2023-03-23T01:14:53;32.90;;;5.05;;
51438;SDS011;38816;51.142;-0.974;2023-03-23T01:17:18;29.52;;;4.75;;
51438;SDS011;38816;51.142;-0.974;2023-03-23T01:19:44;34.38;;;4.25;;
51438;SDS011;38816;51.142;-0.974;2023-03-23T01:22:10;45.00;;;4.97;;
51438;SDS011;38816;51.142;-0.974;2023-03-23T01:24:35;34.63;;;4.50;;
51438;SDS011;38816;51.142;-0.974;2023-03-23T01:27:00;31.77;;;4.57;;
51438;SDS011;38816;51.142;-0.974;2023-03-23T01:29:31;28.85;;;4.25;;
51438;SDS011;38816;51.142;-0.974;2023-03-23T01:32:00;37.58;;;4.75;;
51438;SDS011;38816;51.142;-0.974;2023-03-23T01:34:26;38.22;;;4.45;;
51438;SDS011;38816;51.142;-0.974;2023-03-23T01:36:52;35.13;;;4.45;;
51438;SDS011;38816;51.142;-0.974;2023-03-23T01:39:17;33.63;;;4.30;;
51438;SDS011;38816;51.142;-0.974;2023-03-23T01:41:43;31.35;;;4.95;;
51438;SDS011;38816;51.142;-0.974;2023-03-23T01:45:17;37.70;;;4.75;;
51438;SDS011;38816;51.142;-0.974;2023-03-23T01:46:56;27.27;;;4.18;;
51438;SDS011;38816;51.142;-0.974;2023-03-23T01:49:25;37.15;;;5.13;;
51438;SDS011;38816;51.142;-0.974;2023-03-23T01:51:57;30.77;;;4.15;;
51438;SDS011;38816;51.142;-0.974;2023-03-23T01:54:25;33.22;;;5.22;;
51438;SDS011;38816;51.142;-0.974;2023-03-23T01:57:13;32.88;;;4.70;;
51438;SDS011;38816;51.142;-0.974;2023-03-23T01:59:39;35.05;;;3.95;;
51438;SDS011;38816;51.142;-0.974;2023-03-23T02:02:08;39.85;;;5.03;;
51438;SDS011;38816;51.142;-0.974;2023-03-23T02:04:36;41.72;;;4.43;;
51438;SDS011;38816;51.142;-0.974;2023-03-23T02:07:01;38.95;;;4.85;;
51438;SDS011;38816;51.142;-0.974;2023-03-23T02:09:28;39.85;;;4.60;;
51438;SDS011;38816;51.142;-0.974;2023-03-23T02:11:53;30.45;;;4.53;;
51438;SDS011;38816;51.142;-0.974;2023-03-23T02:14:20;51.97;;;5.53;;
51438;SDS011;38816;51.142;-0.974;2023-03-23T02:16:49;41.42;;;5.65;;
51438;SDS011;38816;51.142;-0.974;2023-03-23T02:19:48;45.53;;;5.03;;
51438;SDS011;38816;51.142;-0.974;2023-03-23T02:31:16;56.63;;;6.43;;
51438;SDS011;38816;51.142;-0.974;2023-03-23T02:34:16;48.90;;;5.28;;
51438;SDS011;38816;51.142;-0.974;2023-03-23T02:39:21;36.00;;;4.40;;
51438;SDS011;38816;51.142;-0.974;2023-03-23T02:41:52;44.08;;;5.63;;
51438;SDS011;38816;51.142;-0.974;2023-03-23T02:44:22;47.17;;;5.20;;
51438;SDS011;38816;51.142;-0.974;2023-03-23T02:46:50;31.50;;;4.68;;
51438;SDS011;38816;51.142;-0.974;2023-03-23T02:49:18;50.90;;;6.85;;
51438;SDS011;38816;51.142;-0.974;2023-03-23T02:51:46;47.13;;;5.95;;
51438;SDS011;38816;51.142;-0.974;2023-03-23T02:54:13;42.45;;;6.00;;
51438;SDS011;38816;51.142;-0.974;2023-03-23T02:56:41;45.22;;;5.15;;
51438;SDS011;38816;51.142;-0.974;2023-03-23T02:59:08;55.95;;;6.50;;
51438;SDS011;38816;51.142;-0.974;2023-03-23T03:04:01;50.97;;;5.85;;
51438;SDS011;38816;51.142;-0.974;2023-03-23T03:12:00;57.03;;;5.93;;
51438;SDS011;38816;51.142;-0.974;2023-03-23T03:14:41;37.25;;;4.82;;
51438;SDS011;38816;51.142;-0.974;2023-03-23T03:17:25;45.20;;;5.90;;
51438;SDS011;38816;51.142;-0.974;2023-03-23T03:19:57;43.63;;;5.13;;
51438;SDS011;38816;51.142;-0.974;2023-03-23T03:22:37;41.42;;;5.82;;
51438;SDS011;38816;51.142;-0.974;2023-03-23T03:25:07;37.95;;;5.28;;
51438;SDS011;38816;51.142;-0.974;2023-03-23T03:27:34;40.83;;;5.30;;
51438;SDS011;38816;51.142;-0.974;2023-03-23T03:30:00;47.05;;;5.20;;
51438;SDS011;38816;51.142;-0.974;2023-03-23T03:32:31;37.92;;;5.72;;
51438;SDS011;38816;51.142;-0.974;2023-03-23T03:35:04;35.22;;;5.35;;
51438;SDS011;38816;51.142;-0.974;2023-03-23T03:37:37;45.88;;;4.60;;
51438;SDS011;38816;51.142;-0.974;2023-03-23T03:40:05;39.67;;;5.47;;
51438;SDS011;38816;51.142;-0.974;2023-03-23T03:42:37;47.35;;;4.95;;
51438;SDS011;38816;51.142;-0.974;2023-03-23T03:45:10;44.47;;;5.43;;
51438;SDS011;38816;51.142;-0.974;2023-03-23T03:47:40;39.35;;;4.38;;
51438;SDS011;38816;51.142;-0.974;2023-03-23T03:50:06;43.45;;;5.95;;
51438;SDS011;38816;51.142;-0.974;2023-03-23T03:52:33;49.53;;;5.28;;
51438;SDS011;38816;51.142;-0.974;2023-03-23T03:54:58;47.90;;;5.80;;
51438;SDS011;38816;51.142;-0.974;2023-03-23T03:57:23;41.53;;;5.50;;
51438;SDS011;38816;51.142;-0.974;2023-03-23T03:59:49;57.60;;;6.38;;
51438;SDS011;38816;51.142;-0.974;2023-03-23T04:02:15;44.95;;;4.47;;
51438;SDS011;38816;51.142;-0.974;2023-03-23T04:04:45;40.65;;;5.97;;
51438;SDS011;38816;51.142;-0.974;2023-03-23T04:07:11;48.08;;;5.60;;
51438;SDS011;38816;51.142;-0.974;2023-03-23T04:09:39;43.42;;;5.68;;
51438;SDS011;38816;51.142;-0.974;2023-03-23T04:12:05;48.83;;;6.70;;
51438;SDS011;38816;51.142;-0.974;2023-03-23T04:14:31;57.83;;;5.53;;
51438;SDS011;38816;51.142;-0.974;2023-03-23T04:16:57;45.67;;;7.10;;
51438;SDS011;38816;51.142;-0.974;2023-03-23T04:19:24;48.15;;;5.55;;
51438;SDS011;38816;51.142;-0.974;2023-03-23T04:21:50;43.10;;;5.53;;
51438;SDS011;38816;51.142;-0.974;2023-03-23T04:24:16;60.28;;;5.85;;
51438;SDS011;38816;51.142;-0.974;2023-03-23T04:26:42;42.35;;;5.85;;
51438;SDS011;38816;51.142;-0.974;2023-03-23T04:29:08;53.08;;;6.45;;
51438;SDS011;38816;51.142;-0.974;2023-03-23T04:31:33;45.03;;;5.50;;
51438;SDS011;38816;51.142;-0.974;2023-03-23T04:34:00;50.60;;;5.95;;
51438;SDS011;38816;51.142;-0.974;2023-03-23T04:36:26;54.08;;;6.28;;
51438;SDS011;38816;51.142;-0.974;2023-03-23T04:38:53;60.17;;;5.63;;
51438;SDS011;38816;51.142;-0.974;2023-03-23T04:41:20;48.78;;;6.00;;
51438;SDS011;38816;51.142;-0.974;2023-03-23T04:43:46;45.33;;;5.80;;
51438;SDS011;38816;51.142;-0.974;2023-03-23T04:46:17;62.35;;;6.55;;
51438;SDS011;38816;51.142;-0.974;2023-03-23T04:48:44;52.60;;;6.75;;
51438;SDS011;38816;51.142;-0.974;2023-03-23T04:51:10;58.72;;;6.35;;
51438;SDS011;38816;51.142;-0.974;2023-03-23T04:53:37;47.78;;;6.07;;
51438;SDS011;38816;51.142;-0.974;2023-03-23T04:56:02;54.83;;;6.13;;
51438;SDS011;38816;51.142;-0.974;2023-03-23T04:58:28;48.20;;;5.55;;
51438;SDS011;38816;51.142;-0.974;2023-03-23T05:03:56;43.15;;;5.28;;
51438;SDS011;38816;51.142;-0.974;2023-03-23T05:06:22;47.42;;;5.32;;
51438;SDS011;38816;51.142;-0.974;2023-03-23T05:08:48;43.00;;;5.20;;
51438;SDS011;38816;51.142;-0.974;2023-03-23T05:11:13;54.70;;;6.75;;
51438;SDS011;38816;51.142;-0.974;2023-03-23T05:13:38;46.95;;;5.57;;
51438;SDS011;38816;51.142;-0.974;2023-03-23T05:16:04;52.88;;;5.55;;
51438;SDS011;38816;51.142;-0.974;2023-03-23T05:18:30;43.85;;;5.25;;
51438;SDS011;38816;51.142;-0.974;2023-03-23T05:20:59;45.67;;;5.82;;
51438;SDS011;38816;51.142;-0.974;2023-03-23T05:23:25;42.95;;;4.45;;
51438;SDS011;38816;51.142;-0.974;2023-03-23T05:25:54;46.80;;;6.60;;
51438;SDS011;38816;51.142;-0.974;2023-03-23T05:28:20;52.40;;;6.28;;
51438;SDS011;38816;51.142;-0.974;2023-03-23T05:30:47;38.97;;;5.00;;
51438;SDS011;38816;51.142;-0.974;2023-03-23T05:33:12;46.45;;;5.13;;
51438;SDS011;38816;51.142;-0.974;2023-03-23T05:35:38;40.38;;;5.35;;
51438;SDS011;38816;51.142;-0.974;2023-03-23T05:38:03;49.65;;;6.15;;
51438;SDS011;38816;51.142;-0.974;2023-03-23T05:40:29;42.28;;;7.65;;
51438;SDS011;38816;51.142;-0.974;2023-03-23T05:42:55;57.05;;;5.85;;
51438;SDS011;38816;51.142;-0.974;2023-03-23T05:45:23;49.47;;;6.35;;
51438;SDS011;38816;51.142;-0.974;2023-03-23T05:47:50;54.65;;;6.65;;
51438;SDS011;38816;51.142;-0.974;2023-03-23T05:50:16;44.85;;;5.75;;
51438;SDS011;38816;51.142;-0.974;2023-03-23T05:52:42;56.78;;;6.25;;
51438;SDS011;38816;51.142;-0.974;2023-03-23T05:55:08;63.63;;;6.43;;
51438;SDS011;38816;51.142;-0.974;2023-03-23T05:57:34;51.95;;;5.65;;
51438;SDS011;38816;51.142;-0.974;2023-03-23T05:59:59;51.33;;;6.45;;
51438;SDS011;38816;51.142;-0.974;2023-03-23T06:02:30;51.28;;;6.82;;
51438;SDS011;38816;51.142;-0.974;2023-03-23T06:04:56;46.80;;;6.07;;
51438;SDS011;38816;51.142;-0.974;2023-03-23T06:07:22;47.47;;;5.45;;
51438;SDS011;38816;51.142;-0.974;2023-03-23T06:09:50;70.57;;;8.27;;
51438;SDS011;38816;51.142;-0.974;2023-03-23T06:12:16;58.58;;;7.20;;
51438;SDS011;38816;51.142;-0.974;2023-03-23T06:14:45;61.00;;;6.90;;
51438;SDS011;38816;51.142;-0.974;2023-03-23T06:17:16;57.10;;;6.32;;
51438;SDS011;38816;51.142;-0.974;2023-03-23T06:19:44;61.58;;;6.65;;
51438;SDS011;38816;51.142;-0.974;2023-03-23T06:22:14;58.92;;;7.03;;
51438;SDS011;38816;51.142;-0.974;2023-03-23T06:24:40;50.97;;;6.60;;
51438;SDS011;38816;51.142;-0.974;2023-03-23T06:27:06;45.95;;;5.57;;
51438;SDS011;38816;51.142;-0.974;2023-03-23T06:29:32;43.80;;;6.13;;
51438;SDS011;38816;51.142;-0.974;2023-03-23T06:31:59;61.13;;;6.35;;
51438;SDS011;38816;51.142;-0.974;2023-03-23T06:34:27;46.13;;;5.93;;
51438;SDS011;38816;51.142;-0.974;2023-03-23T06:36:52;52.53;;;6.03;;
51438;SDS011;38816;51.142;-0.974;2023-03-23T06:39:18;44.47;;;6.13;;
51438;SDS011;38816;51.142;-0.974;2023-03-23T06:41:44;44.63;;;5.65;;
51438;SDS011;38816;51.142;-0.974;2023-03-23T06:44:09;58.75;;;5.88;;
51438;SDS011;38816;51.142;-0.974;2023-03-23T06:46:38;51.45;;;5.95;;
51438;SDS011;38816;51.142;-0.974;2023-03-23T06:49:04;51.53;;;5.90;;
51438;SDS011;38816;51.142;-0.974;2023-03-23T06:51:30;43.85;;;5.25;;
51438;SDS011;38816;51.142;-0.974;2023-03-23T06:53:55;41.28;;;6.10;;
51438;SDS011;38816;51.142;-0.974;2023-03-23T06:56:22;41.47;;;5.30;;
51438;SDS011;38816;51.142;-0.974;2023-03-23T06:58:48;53.65;;;5.68;;
51438;SDS011;38816;51.142;-0.974;2023-03-23T07:01:13;44.72;;;6.03;;
51438;SDS011;38816;51.142;-0.974;2023-03-23T07:03:40;46.00;;;6.70;;
51438;SDS011;38816;51.142;-0.974;2023-03-23T07:06:06;37.17;;;5.47;;
51438;SDS011;38816;51.142;-0.974;2023-03-23T07:08:32;49.17;;;6.97;;
51438;SDS011;38816;51.142;-0.974;2023-03-23T07:10:58;33.15;;;5.40;;
51438;SDS011;38816;51.142;-0.974;2023-03-23T07:13:24;41.17;;;5.07;;
51438;SDS011;38816;51.142;-0.974;2023-03-23T07:15:50;45.70;;;5.43;;
51438;SDS011;38816;51.142;-0.974;2023-03-23T07:18:16;52.72;;;5.80;;
51438;SDS011;38816;51.142;-0.974;2023-03-23T07:20:41;32.65;;;5.88;;
51438;SDS011;38816;51.142;-0.974;2023-03-23T07:23:07;49.58;;;5.85;;
51438;SDS011;38816;51.142;-0.974;2023-03-23T07:25:33;46.03;;;5.90;;
51438;SDS011;38816;51.142;-0.974;2023-03-23T07:28:00;38.92;;;5.82;;
51438;SDS011;38816;51.142;-0.974;2023-03-23T07:30:26;43.50;;;5.95;;
51438;SDS011;38816;51.142;-0.974;2023-03-23T07:32:52;38.88;;;7.18;;
51438;SDS011;38816;51.142;-0.974;2023-03-23T07:35:18;43.72;;;5.55;;
51438;SDS011;38816;51.142;-0.974;2023-03-23T07:37:43;39.28;;;5.10;;
51438;SDS011;38816;51.142;-0.974;2023-03-23T07:40:10;39.35;;;5.68;;
51438;SDS011;38816;51.142;-0.974;2023-03-23T07:42:43;50.08;;;7.93;;
51438;SDS011;38816;51.142;-0.974;2023-03-23T07:45:13;55.50;;;6.35;;
51438;SDS011;38816;51.142;-0.974;2023-03-23T07:47:39;37.28;;;5.18;;
51438;SDS011;38816;51.142;-0.974;2023-03-23T07:50:05;49.80;;;5.70;;
51438;SDS011;38816;51.142;-0.974;2023-03-23T07:52:32;40.28;;;5.55;;
51438;SDS011;38816;51.142;-0.974;2023-03-23T07:54:58;47.75;;;6.35;;
51438;SDS011;38816;51.142;-0.974;2023-03-23T07:57:24;41.22;;;5.80;;
51438;SDS011;38816;51.142;-0.974;2023-03-23T07:59:49;39.35;;;5.15;;
51438;SDS011;38816;51.142;-0.974;2023-03-23T08:02:14;35.70;;;4.82;;
51438;SDS011;38816;51.142;-0.974;2023-03-23T08:04:40;41.47;;;5.65;;
51438;SDS011;38816;51.142;-0.974;2023-03-23T08:07:07;40.78;;;5.57;;
51438;SDS011;38816;51.142;-0.974;2023-03-23T08:09:33;32.25;;;5.38;;
51438;SDS011;38816;51.142;-0.974;2023-03-23T08:11:58;36.08;;;5.32;;
51438;SDS011;38816;51.142;-0.974;2023-03-23T08:14:23;31.30;;;4.88;;
51438;SDS011;38816;51.142;-0.974;2023-03-23T08:16:52;30.63;;;5.40;;
51438;SDS011;38816;51.142;-0.974;2023-03-23T08:19:20;33.40;;;5.03;;
51438;SDS011;38816;51.142;-0.974;2023-03-23T08:21:45;32.05;;;4.80;;
51438;SDS011;38816;51.142;-0.974;2023-03-23T08:24:11;30.95;;;4.95;;
51438;SDS011;38816;51.142;-0.974;2023-03-23T08:26:36;34.58;;;5.90;;
51438;SDS011;38816;51.142;-0.974;2023-03-23T08:29:03;33.58;;;4.68;;
51438;SDS011;38816;51.142;-0.974;2023-03-23T08:31:29;33.47;;;5.15;;
51438;SDS011;38816;51.142;-0.974;2023-03-23T08:33:54;28.05;;;4.55;;
51438;SDS011;38816;51.142;-0.974;2023-03-23T08:36:21;33.63;;;5.05;;
51438;SDS011;38816;51.142;-0.974;2023-03-23T08:38:47;37.67;;;5.28;;
51438;SDS011;38816;51.142;-0.974;2023-03-23T08:41:13;30.00;;;4.25;;
51438;SDS011;38816;51.142;-0.974;2023-03-23T08:43:38;35.38;;;4.85;;
51438;SDS011;38816;51.142;-0.974;2023-03-23T08:46:04;31.95;;;4.50;;
51438;SDS011;38816;51.142;-0.974;2023-03-23T08:48:34;34.10;;;5.25;;
51438;SDS011;38816;51.142;-0.974;2023-03-23T08:51:00;33.13;;;4.60;;
51438;SDS011;38816;51.142;-0.974;2023-03-23T08:53:26;33.55;;;5.03;;
51438;SDS011;38816;51.142;-0.974;2023-03-23T08:55:55;29.23;;;4.43;;
51438;SDS011;38816;51.142;-0.974;2023-03-23T08:58:21;34.45;;;4.97;;
51438;SDS011;38816;51.142;-0.974;2023-03-23T09:00:47;28.40;;;4.20;;
51438;SDS011;38816;51.142;-0.974;2023-03-23T09:03:13;41.60;;;5.25;;
51438;SDS011;38816;51.142;-0.974;2023-03-23T09:05:38;32.08;;;5.15;;
51438;SDS011;38816;51.142;-0.974;2023-03-23T09:08:08;26.70;;;4.57;;
51438;SDS011;38816;51.142;-0.974;2023-03-23T09:10:33;30.77;;;5.13;;
51438;SDS011;38816;51.142;-0.974;2023-03-23T09:12:59;37.88;;;4.85;;
51438;SDS011;38816;51.142;-0.974;2023-03-23T09:15:24;33.08;;;5.20;;
51438;SDS011;38816;51.142;-0.974;2023-03-23T09:17:51;37.63;;;5.00;;
51438;SDS011;38816;51.142;-0.974;2023-03-23T09:20:21;35.50;;;5.20;;
51438;SDS011;38816;51.142;-0.974;2023-03-23T09:22:50;36.28;;;4.38;;
51438;SDS011;38816;51.142;-0.974;2023-03-23T09:25:19;32.40;;;5.25;;
51438;SDS011;38816;51.142;-0.974;2023-03-23T09:27:50;26.15;;;4.65;;
51438;SDS011;38816;51.142;-0.974;2023-03-23T09:30:19;38.92;;;5.20;;
51438;SDS011;38816;51.142;-0.974;2023-03-23T09:32:45;35.92;;;5.28;;
51438;SDS011;38816;51.142;-0.974;2023-03-23T09:35:13;29.67;;;4.70;;
51438;SDS011;38816;51.142;-0.974;2023-03-23T09:37:39;35.72;;;4.78;;
51438;SDS011;38816;51.142;-0.974;2023-03-23T09:40:06;23.55;;;4.80;;
51438;SDS011;38816;51.142;-0.974;2023-03-23T09:42:51;24.70;;;4.80;;
51438;SDS011;38816;51.142;-0.974;2023-03-23T09:45:33;27.92;;;4.07;;
51438;SDS011;38816;51.142;-0.974;2023-03-23T09:48:17;35.03;;;4.57;;
51438;SDS011;38816;51.142;-0.974;2023-03-23T09:50:52;31.35;;;4.95;;
51438;SDS011;38816;51.142;-0.974;2023-03-23T09:53:39;30.48;;;4.47;;
51438;SDS011;38816;51.142;-0.974;2023-03-23T09:56:12;29.50;;;4.43;;
51438;SDS011;38816;51.142;-0.974;2023-03-23T10:01:23;29.80;;;4.45;;
51438;SDS011;38816;51.142;-0.974;2023-03-23T10:04:01;31.05;;;5.40;;
51438;SDS011;38816;51.142;-0.974;2023-03-23T10:06:32;25.65;;;5.20;;
51438;SDS011;38816;51.142;-0.974;2023-03-23T10:08:58;27.67;;;4.75;;
51438;SDS011;38816;51.142;-0.974;2023-03-23T10:11:31;30.00;;;4.15;;
51438;SDS011;38816;51.142;-0.974;2023-03-23T10:14:18;41.58;;;5.95;;
51438;SDS011;38816;51.142;-0.974;2023-03-23T10:17:03;38.83;;;6.40;;
51438;SDS011;38816;51.142;-0.974;2023-03-23T10:20:00;36.63;;;5.80;;
51438;SDS011;38816;51.142;-0.974;2023-03-23T10:22:41;44.38;;;6.50;;
51438;SDS011;38816;51.142;-0.974;2023-03-23T10:25:22;38.35;;;6.18;;
51438;SDS011;38816;51.142;-0.974;2023-03-23T10:27:54;43.75;;;6.90;;
51438;SDS011;38816;51.142;-0.974;2023-03-23T10:33:40;37.90;;;5.35;;
51438;SDS011;38816;51.142;-0.974;2023-03-23T10:38:53;36.92;;;5.93;;
51438;SDS011;38816;51.142;-0.974;2023-03-23T10:41:23;40.60;;;6.18;;
51438;SDS011;38816;51.142;-0.974;2023-03-23T10:43:49;38.20;;;5.93;;
51438;SDS011;38816;51.142;-0.974;2023-03-23T10:49:12;47.63;;;6.60;;
51438;SDS011;38816;51.142;-0.974;2023-03-23T10:51:43;45.03;;;7.22;;
51438;SDS011;38816;51.142;-0.974;2023-03-23T10:54:24;57.25;;;6.60;;
51438;SDS011;38816;51.142;-0.974;2023-03-23T10:56:51;52.90;;;7.63;;
51438;SDS011;38816;51.142;-0.974;2023-03-23T10:59:21;46.72;;;6.72;;
51438;SDS011;38816;51.142;-0.974;2023-03-23T11:01:53;34.15;;;5.50;;
51438;SDS011;38816;51.142;-0.974;2023-03-23T11:04:21;43.10;;;7.00;;
51438;SDS011;38816;51.142;-0.974;2023-03-23T11:06:50;42.30;;;7.45;;
51438;SDS011;38816;51.142;-0.974;2023-03-23T11:09:21;42.33;;;5.88;;
51438;SDS011;38816;51.142;-0.974;2023-03-23T11:11:58;43.97;;;5.90;;
51438;SDS011;38816;51.142;-0.974;2023-03-23T11:14:30;44.15;;;6.05;;
51438;SDS011;38816;51.142;-0.974;2023-03-23T11:17:02;35.42;;;6.97;;
51438;SDS011;38816;51.142;-0.974;2023-03-23T11:19:30;36.58;;;6.20;;
51438;SDS011;38816;51.142;-0.974;2023-03-23T11:24:30;38.67;;;6.20;;
51438;SDS011;38816;51.142;-0.974;2023-03-23T11:26:58;31.63;;;6.13;;
51438;SDS011;38816;51.142;-0.974;2023-03-23T11:29:25;39.92;;;6.80;;
51438;SDS011;38816;51.142;-0.974;2023-03-23T11:31:52;50.03;;;6.88;;
51438;SDS011;38816;51.142;-0.974;2023-03-23T11:34:32;46.95;;;7.63;;
51438;SDS011;38816;51.142;-0.974;2023-03-23T11:37:09;41.63;;;6.80;;
51438;SDS011;38816;51.142;-0.974;2023-03-23T11:39:47;34.95;;;6.18;;
51438;SDS011;38816;51.142;-0.974;2023-03-23T11:42:22;41.15;;;7.25;;
51438;SDS011;38816;51.142;-0.974;2023-03-23T11:45:16;32.63;;;5.78;;
51438;SDS011;38816;51.142;-0.974;2023-03-23T11:50:51;35.50;;;6.18;;
51438;SDS011;38816;51.142;-0.974;2023-03-23T11:53:27;40.97;;;6.03;;
51438;SDS011;38816;51.142;-0.974;2023-03-23T11:56:17;35.00;;;6.45;;
51438;SDS011;38816;51.142;-0.974;2023-03-23T11:58:45;38.70;;;6.00;;
51438;SDS011;38816;51.142;-0.974;2023-03-23T12:09:12;36.95;;;5.63;;
51438;SDS011;38816;51.142;-0.974;2023-03-23T12:43:49;34.25;;;5.45;;
51438;SDS011;38816;51.142;-0.974;2023-03-23T12:49:22;37.17;;;6.50;;
51438;SDS011;38816;51.142;-0.974;2023-03-23T12:51:56;30.95;;;5.43;;
51438;SDS011;38816;51.142;-0.974;2023-03-23T12:54:43;44.88;;;6.65;;
51438;SDS011;38816;51.142;-0.974;2023-03-23T13:00:02;36.70;;;6.60;;
51438;SDS011;38816;51.142;-0.974;2023-03-23T13:02:37;42.33;;;5.72;;
51438;SDS011;38816;51.142;-0.974;2023-03-23T13:07:51;39.83;;;6.68;;
51438;SDS011;38816;51.142;-0.974;2023-03-23T13:10:22;40.63;;;6.13;;
51438;SDS011;38816;51.142;-0.974;2023-03-23T13:12:52;36.38;;;6.05;;
51438;SDS011;38816;51.142;-0.974;2023-03-23T13:15:38;39.10;;;5.43;;
51438;SDS011;38816;51.142;-0.974;2023-03-23T13:18:20;34.17;;;5.55;;
51438;SDS011;38816;51.142;-0.974;2023-03-23T13:23:35;38.85;;;5.90;;
51438;SDS011;38816;51.142;-0.974;2023-03-23T13:26:22;45.42;;;6.45;;
51438;SDS011;38816;51.142;-0.974;2023-03-23T13:28:55;33.42;;;5.70;;
51438;SDS011;38816;51.142;-0.974;2023-03-23T13:31:25;32.55;;;5.68;;
51438;SDS011;38816;51.142;-0.974;2023-03-23T13:34:01;41.22;;;6.00;;
51438;SDS011;38816;51.142;-0.974;2023-03-23T13:36:31;38.17;;;6.80;;
51438;SDS011;38816;51.142;-0.974;2023-03-23T13:39:02;40.67;;;6.65;;
51438;SDS011;38816;51.142;-0.974;2023-03-23T13:41:32;29.63;;;5.75;;
51438;SDS011;38816;51.142;-0.974;2023-03-23T13:44:39;42.63;;;6.82;;
51438;SDS011;38816;51.142;-0.974;2023-03-23T13:46:53;34.67;;;6.32;;
51438;SDS011;38816;51.142;-0.974;2023-03-23T13:49:21;39.85;;;6.60;;
51438;SDS011;38816;51.142;-0.974;2023-03-23T13:56:56;47.03;;;7.50;;
51438;SDS011;38816;51.142;-0.974;2023-03-23T14:01:52;39.70;;;6.15;;
51438;SDS011;38816;51.142;-0.974;2023-03-23T14:04:19;41.05;;;6.65;;
51438;SDS011;38816;51.142;-0.974;2023-03-23T14:06:46;38.75;;;7.60;;
51438;SDS011;38816;51.142;-0.974;2023-03-23T14:09:15;46.35;;;7.38;;
51438;SDS011;38816;51.142;-0.974;2023-03-23T14:11:51;45.83;;;6.57;;
51438;SDS011;38816;51.142;-0.974;2023-03-23T14:14:28;39.25;;;7.20;;
51438;SDS011;38816;51.142;-0.974;2023-03-23T14:17:14;36.15;;;6.20;;
51438;SDS011;38816;51.142;-0.974;2023-03-23T14:19:46;40.75;;;6.25;;
51438;SDS011;38816;51.142;-0.974;2023-03-23T14:22:19;44.05;;;6.90;;
51438;SDS011;38816;51.142;-0.974;2023-03-23T14:24:48;40.28;;;6.25;;
51438;SDS011;38816;51.142;-0.974;2023-03-23T14:27:14;45.22;;;6.47;;
51438;SDS011;38816;51.142;-0.974;2023-03-23T14:29:42;45.72;;;7.28;;
51438;SDS011;38816;51.142;-0.974;2023-03-23T14:32:11;49.28;;;7.28;;
51438;SDS011;38816;51.142;-0.974;2023-03-23T14:34:40;45.85;;;6.25;;
51438;SDS011;38816;51.142;-0.974;2023-03-23T14:37:08;38.50;;;6.38;;
51438;SDS011;38816;51.142;-0.974;2023-03-23T14:39:36;43.28;;;6.97;;
51438;SDS011;38816;51.142;-0.974;2023-03-23T14:42:03;42.13;;;6.78;;
51438;SDS011;38816;51.142;-0.974;2023-03-23T14:44:35;45.40;;;6.93;;
51438;SDS011;38816;51.142;-0.974;2023-03-23T14:47:06;44.38;;;6.38;;
51438;SDS011;38816;51.142;-0.974;2023-03-23T14:49:41;46.92;;;7.55;;
51438;SDS011;38816;51.142;-0.974;2023-03-23T14:52:09;47.38;;;6.10;;
51438;SDS011;38816;51.142;-0.974;2023-03-23T14:54:42;49.83;;;6.93;;
51438;SDS011;38816;51.142;-0.974;2023-03-23T14:57:28;45.65;;;6.72;;
51438;SDS011;38816;51.142;-0.974;2023-03-23T14:59:54;41.60;;;7.18;;
51438;SDS011;38816;51.142;-0.974;2023-03-23T15:02:23;38.38;;;5.80;;
51438;SDS011;38816;51.142;-0.974;2023-03-23T15:05:12;39.45;;;5.90;;
51438;SDS011;38816;51.142;-0.974;2023-03-23T15:07:44;38.80;;;5.93;;
51438;SDS011;38816;51.142;-0.974;2023-03-23T15:10:16;37.85;;;5.68;;
51438;SDS011;38816;51.142;-0.974;2023-03-23T15:12:44;41.80;;;6.32;;
51438;SDS011;38816;51.142;-0.974;2023-03-23T15:15:32;34.88;;;5.18;;
51438;SDS011;38816;51.142;-0.974;2023-03-23T15:17:58;39.90;;;5.40;;
51438;SDS011;38816;51.142;-0.974;2023-03-23T15:20:27;35.83;;;5.72;;
51438;SDS011;38816;51.142;-0.974;2023-03-23T15:22:55;38.33;;;5.18;;
51438;SDS011;38816;51.142;-0.974;2023-03-23T15:27:57;39.30;;;6.85;;
51438;SDS011;38816;51.142;-0.974;2023-03-23T15:33:03;33.00;;;5.13;;
51438;SDS011;38816;51.142;-0.974;2023-03-23T15:35:36;32.65;;;5.32;;
51438;SDS011;38816;51.142;-0.974;2023-03-23T15:38:12;35.40;;;4.38;;
51438;SDS011;38816;51.142;-0.974;2023-03-23T15:40:48;19.85;;;3.92;;
51438;SDS011;38816;51.142;-0.974;2023-03-23T15:43:19;22.02;;;3.97;;
51438;SDS011;38816;51.142;-0.974;2023-03-23T15:45:56;22.63;;;3.70;;
51438;SDS011;38816;51.142;-0.974;2023-03-23T15:51:16;14.27;;;2.97;;
51438;SDS011;38816;51.142;-0.974;2023-03-23T15:53:44;18.15;;;3.20;;
51438;SDS011;38816;51.142;-0.974;2023-03-23T15:56:12;20.95;;;3.13;;
51438;SDS011;38816;51.142;-0.974;2023-03-23T15:58:38;22.88;;;3.80;;
51438;SDS011;38816;51.142;-0.974;2023-03-23T16:01:06;18.13;;;3.28;;
51438;SDS011;38816;51.142;-0.974;2023-03-23T16:03:52;23.63;;;3.65;;
51438;SDS011;38816;51.142;-0.974;2023-03-23T16:06:21;23.23;;;3.33;;
51438;SDS011;38816;51.142;-0.974;2023-03-23T16:08:48;20.58;;;3.42;;
51438;SDS011;38816;51.142;-0.974;2023-03-23T16:11:15;17.23;;;3.03;;
51438;SDS011;38816;51.142;-0.974;2023-03-23T16:13:42;18.05;;;3.03;;
51438;SDS011;38816;51.142;-0.974;2023-03-23T16:16:18;20.92;;;3.00;;
51438;SDS011;38816;51.142;-0.974;2023-03-23T16:18:47;17.65;;;3.35;;
51438;SDS011;38816;51.142;-0.974;2023-03-23T16:21:12;22.30;;;3.38;;
51438;SDS011;38816;51.142;-0.974;2023-03-23T16:23:38;13.73;;;2.70;;